createdAt,value
2018-06-24T00:00:44.551Z,17.30
2018-06-24T00:03:15.202Z,17.30
2018-06-24T00:05:45.441Z,17.30
2018-06-24T00:08:16.201Z,17.20
2018-06-24T00:10:46.636Z,17.20
2018-06-24T00:13:18.725Z,17.20
2018-06-24T00:15:49.325Z,17.10
2018-06-24T00:18:19.874Z,17.10
2018-06-24T00:20:50.164Z,17.00
2018-06-24T00:23:20.789Z,17.00
2018-06-24T00:25:51.570Z,17.00
2018-06-24T00:28:22.280Z,16.90
2018-06-24T00:30:53.178Z,16.90
2018-06-24T00:33:23.722Z,16.80
2018-06-24T00:35:55.072Z,16.70
2018-06-24T00:38:25.253Z,16.70
2018-06-24T00:40:55.516Z,16.60
2018-06-24T00:43:25.861Z,16.60
2018-06-24T00:45:56.084Z,16.60
2018-06-24T00:48:26.381Z,16.50
2018-06-24T00:50:56.561Z,16.50
2018-06-24T00:53:27.300Z,16.40
2018-06-24T00:55:57.680Z,16.40
2018-06-24T00:58:28.774Z,16.40
2018-06-24T01:00:59.288Z,16.30
2018-06-24T01:03:30.749Z,16.30
2018-06-24T01:06:00.870Z,16.20
2018-06-24T01:08:31.337Z,16.20
2018-06-24T01:11:01.709Z,16.20
2018-06-24T01:13:33.570Z,16.20
2018-06-24T01:16:04.466Z,16.10
2018-06-24T01:18:34.661Z,16.10
2018-06-24T01:21:04.792Z,16.00
2018-06-24T01:23:35.820Z,16.00
2018-06-24T01:26:06.198Z,16.00
2018-06-24T01:28:36.313Z,16.00
2018-06-24T01:31:06.593Z,15.90
2018-06-24T01:33:39.146Z,15.90
2018-06-24T01:36:10.318Z,15.80
2018-06-24T01:38:40.965Z,15.80
2018-06-24T01:41:10.972Z,15.80
2018-06-24T01:43:41.822Z,15.80
2018-06-24T01:46:12.395Z,15.70
2018-06-24T01:48:42.705Z,15.70
2018-06-24T01:51:12.905Z,15.70
2018-06-24T01:53:43.048Z,15.60
2018-06-24T01:56:15.833Z,15.60
2018-06-24T01:58:46.136Z,15.60
2018-06-24T02:01:16.167Z,15.60
2018-06-24T02:03:46.501Z,15.50
2018-06-24T02:06:16.673Z,15.50
2018-06-24T02:08:47.050Z,15.50
2018-06-24T02:11:18.595Z,15.40
2018-06-24T02:13:49.050Z,15.40
2018-06-24T02:16:19.784Z,15.40
2018-06-24T02:18:49.849Z,15.40
2018-06-24T02:21:20.290Z,15.40
2018-06-24T02:23:50.532Z,15.30
2018-06-24T02:26:22.021Z,15.30
2018-06-24T02:28:52.376Z,15.30
2018-06-24T02:31:22.546Z,15.30
2018-06-24T02:33:52.681Z,15.20
2018-06-24T02:36:22.766Z,15.20
2018-06-24T02:38:53.394Z,15.10
2018-06-24T02:41:24.161Z,15.10
2018-06-24T02:43:54.610Z,15.10
2018-06-24T02:46:24.862Z,15.00
2018-06-24T02:48:55.498Z,15.00
2018-06-24T02:51:26.067Z,15.00
2018-06-24T02:53:56.409Z,15.00
2018-06-24T02:56:27.198Z,14.90
2018-06-24T02:58:59.548Z,14.90
2018-06-24T03:01:29.503Z,14.90
2018-06-24T03:04:03.446Z,14.90
2018-06-24T03:06:34.261Z,14.80
2018-06-24T03:09:06.376Z,14.80
2018-06-24T03:11:36.492Z,14.80
2018-06-24T03:14:08.098Z,14.80
2018-06-24T03:16:38.862Z,14.70
2018-06-24T03:19:09.092Z,14.70
2018-06-24T03:21:39.989Z,14.70
2018-06-24T03:24:10.059Z,14.60
2018-06-24T03:26:40.442Z,14.60
2018-06-24T03:29:10.580Z,14.60
2018-06-24T03:31:41.205Z,14.50
2018-06-24T03:34:11.341Z,14.50
2018-06-24T03:36:41.652Z,14.50
2018-06-24T03:39:12.424Z,14.40
2018-06-24T03:41:43.133Z,14.40
2018-06-24T03:44:13.985Z,14.40
2018-06-24T03:46:44.301Z,14.30
2018-06-24T03:49:15.741Z,14.30
2018-06-24T03:51:48.771Z,14.30
2018-06-24T03:54:18.910Z,14.20
2018-06-24T03:56:49.314Z,14.20
2018-06-24T03:59:19.876Z,14.20
2018-06-24T04:01:50.819Z,14.20
2018-06-24T04:04:21.196Z,14.20
2018-06-24T04:06:51.448Z,14.20
2018-06-24T04:09:21.901Z,14.20
2018-06-24T04:11:52.203Z,14.20
2018-06-24T04:14:22.804Z,14.10
2018-06-24T04:16:54.098Z,14.10
2018-06-24T04:19:24.478Z,14.10
2018-06-24T04:21:54.813Z,14.20
2018-06-24T04:24:26.176Z,14.20
2018-06-24T04:26:56.735Z,14.20
2018-06-24T04:29:26.903Z,14.20
2018-06-24T04:31:57.175Z,14.20
2018-06-24T04:34:27.936Z,14.20
2018-06-24T04:36:58.754Z,14.20
2018-06-24T04:39:29.695Z,14.20
2018-06-24T04:42:01.527Z,14.20
2018-06-24T04:44:31.871Z,14.30
2018-06-24T04:47:02.108Z,14.30
2018-06-24T04:49:32.492Z,14.30
2018-06-24T04:52:03.306Z,14.10
2018-06-24T04:54:34.037Z,14.30
2018-06-24T04:57:04.423Z,14.40
2018-06-24T04:59:35.381Z,14.40
2018-06-24T05:02:06.649Z,14.40
2018-06-24T05:04:37.025Z,14.40
2018-06-24T05:07:07.871Z,14.50
2018-06-24T05:09:38.547Z,14.50
2018-06-24T05:12:08.658Z,14.50
2018-06-24T05:14:39.197Z,14.50
2018-06-24T05:17:09.552Z,14.60
2018-06-24T05:19:40.334Z,14.60
2018-06-24T05:22:10.687Z,14.70
2018-06-24T05:24:41.960Z,14.70
2018-06-24T05:27:13.746Z,14.70
2018-06-24T05:29:43.976Z,14.80
2018-06-24T05:32:14.491Z,14.80
2018-06-24T05:34:45.038Z,14.80
2018-06-24T05:37:15.476Z,14.90
2018-06-24T05:39:45.984Z,14.90
2018-06-24T05:42:19.271Z,15.00
2018-06-24T05:44:50.361Z,15.00
2018-06-24T05:47:21.409Z,15.10
2018-06-24T05:49:52.175Z,15.10
2018-06-24T05:52:22.768Z,15.20
2018-06-24T05:54:53.128Z,15.30
2018-06-24T05:57:23.365Z,15.40
2018-06-24T05:59:53.917Z,15.40
2018-06-24T06:02:24.225Z,15.50
2018-06-24T06:04:54.913Z,15.60
2018-06-24T06:07:25.108Z,15.70
2018-06-24T06:09:55.440Z,15.80
2018-06-24T06:12:25.885Z,15.90
2018-06-24T06:14:56.146Z,15.90
2018-06-24T06:17:27.505Z,16.00
2018-06-24T06:19:57.672Z,16.10
2018-06-24T06:22:28.048Z,16.20
2018-06-24T06:24:58.288Z,16.20
2018-06-24T06:27:28.852Z,16.30
2018-06-24T06:29:58.911Z,16.40
2018-06-24T06:32:29.363Z,16.50
2018-06-24T06:34:59.832Z,16.60
2018-06-24T06:37:30.829Z,16.70
2018-06-24T06:40:00.990Z,16.80
2018-06-24T06:42:31.169Z,16.90
2018-06-24T06:45:01.888Z,17.00
2018-06-24T06:47:32.093Z,17.10
2018-06-24T06:50:02.109Z,17.20
2018-06-24T06:52:32.354Z,17.30
2018-06-24T06:55:03.206Z,17.40
2018-06-24T06:57:33.513Z,17.50
2018-06-24T07:00:03.887Z,17.60
2018-06-24T07:02:34.166Z,17.70
2018-06-24T07:05:04.472Z,17.80
2018-06-24T07:07:34.640Z,18.00
2018-06-24T07:10:05.124Z,18.10
2018-06-24T07:12:35.332Z,18.30
2018-06-24T07:15:06.081Z,18.50
2018-06-24T07:17:36.049Z,18.60
2018-06-24T07:20:06.520Z,18.80
2018-06-24T07:22:36.513Z,18.90
2018-06-24T07:25:06.931Z,19.00
2018-06-24T07:27:36.961Z,19.10
2018-06-24T07:30:07.407Z,19.10
2018-06-24T07:32:37.784Z,19.10
2018-06-24T07:35:17.196Z,19.10
2018-06-24T07:37:47.309Z,19.10
2018-06-24T07:40:17.594Z,19.10
2018-06-24T07:42:47.998Z,19.10
2018-06-24T07:45:18.198Z,19.10
2018-06-24T07:47:48.264Z,19.10
2018-06-24T07:50:18.495Z,19.10
2018-06-24T07:52:48.792Z,19.20
2018-06-24T07:55:19.465Z,19.30
2018-06-24T07:57:49.840Z,19.40
2018-06-24T08:00:20.136Z,19.50
2018-06-24T08:02:51.087Z,19.60
2018-06-24T08:05:22.594Z,19.80
2018-06-24T08:07:52.925Z,19.90
2018-06-24T08:10:23.212Z,20.00
2018-06-24T08:12:54.318Z,20.10
2018-06-24T08:15:25.060Z,20.20
2018-06-24T08:17:56.125Z,20.40
2018-06-24T08:20:26.589Z,20.70
2018-06-24T08:22:56.882Z,20.90
2018-06-24T08:25:27.224Z,21.00
2018-06-24T08:27:57.412Z,21.10
2018-06-24T08:30:27.611Z,21.10
2018-06-24T08:32:57.921Z,21.10
2018-06-24T08:35:28.158Z,21.20
2018-06-24T08:37:58.898Z,21.20
2018-06-24T08:40:29.356Z,21.30
2018-06-24T08:43:00.646Z,21.30
2018-06-24T08:45:31.129Z,21.40
2018-06-24T08:48:01.621Z,21.50
2018-06-24T08:50:32.057Z,21.60
2018-06-24T08:53:04.547Z,21.70
2018-06-24T08:55:35.058Z,21.80
2018-06-24T08:58:05.723Z,21.80
2018-06-24T09:00:35.959Z,21.90
2018-06-24T09:03:06.987Z,21.90
2018-06-24T09:05:37.282Z,21.90
2018-06-24T09:08:07.927Z,21.90
2018-06-24T09:10:38.117Z,22.00
2018-06-24T09:13:11.096Z,22.00
2018-06-24T09:15:43.384Z,22.10
2018-06-24T09:18:15.482Z,22.30
2018-06-24T09:20:46.422Z,22.40
2018-06-24T09:23:17.045Z,22.60
2018-06-24T09:25:47.689Z,22.80
2018-06-24T09:28:18.335Z,22.90
2018-06-24T09:30:49.066Z,23.10
2018-06-24T09:33:20.373Z,23.30
2018-06-24T09:35:51.329Z,23.30
2018-06-24T09:38:22.915Z,23.30
2018-06-24T09:40:53.391Z,23.30
2018-06-24T09:43:24.697Z,23.30
2018-06-24T09:45:54.838Z,23.20
2018-06-24T09:48:25.082Z,23.20
2018-06-24T09:50:55.754Z,23.10
2018-06-24T09:53:26.019Z,23.10
2018-06-24T09:55:57.829Z,23.20
2018-06-24T09:58:28.648Z,23.20
2018-06-24T10:00:58.835Z,23.20
2018-06-24T10:03:28.940Z,23.20
2018-06-24T10:06:00.051Z,23.30
2018-06-24T10:08:30.360Z,23.40
2018-06-24T10:11:00.749Z,23.50
2018-06-24T10:13:31.092Z,23.60
2018-06-24T10:16:01.200Z,23.60
2018-06-24T10:18:31.436Z,23.60
2018-06-24T10:21:01.644Z,23.50
2018-06-24T10:23:31.934Z,23.50
2018-06-24T10:26:03.308Z,23.50
2018-06-24T10:28:34.179Z,23.60
2018-06-24T10:31:04.674Z,23.70
2018-06-24T10:33:34.832Z,23.80
2018-06-24T10:36:05.117Z,24.00
2018-06-24T10:38:35.412Z,24.20
2018-06-24T10:41:05.519Z,24.30
2018-06-24T10:43:36.170Z,24.40
2018-06-24T10:46:06.495Z,24.40
2018-06-24T10:48:37.469Z,24.40
2018-06-24T10:51:07.881Z,24.40
2018-06-24T10:53:39.081Z,24.30
2018-06-24T10:56:09.426Z,24.30
2018-06-24T10:58:39.755Z,24.30
2018-06-24T11:01:09.809Z,24.40
2018-06-24T11:03:41.386Z,24.40
2018-06-24T11:06:12.024Z,24.60
2018-06-24T11:08:42.767Z,24.80
2018-06-24T11:11:13.201Z,24.90
2018-06-24T11:13:43.548Z,25.10
2018-06-24T11:16:14.274Z,25.20
2018-06-24T11:18:45.873Z,25.20
2018-06-24T11:21:16.649Z,25.10
2018-06-24T11:23:47.015Z,25.10
2018-06-24T11:26:18.718Z,25.20
2018-06-24T11:28:50.302Z,25.30
2018-06-24T11:31:21.598Z,25.40
2018-06-24T11:33:51.721Z,25.40
2018-06-24T11:36:22.286Z,25.50
2018-06-24T11:38:52.534Z,25.50
2018-06-24T11:41:22.882Z,25.60
2018-06-24T11:43:54.936Z,25.70
2018-06-24T11:46:25.620Z,25.70
2018-06-24T11:48:56.237Z,25.80
2018-06-24T11:51:33.545Z,25.90
2018-06-24T11:54:04.579Z,26.10
2018-06-24T11:56:35.173Z,26.10
2018-06-24T11:59:05.461Z,26.20
2018-06-24T12:01:35.928Z,26.30
2018-06-24T12:04:06.728Z,26.30
2018-06-24T12:06:36.778Z,26.40
2018-06-24T12:09:11.605Z,26.50
2018-06-24T12:11:45.045Z,26.60
2018-06-24T12:14:17.072Z,26.60
2018-06-24T12:16:47.314Z,26.60
2018-06-24T12:19:18.506Z,26.70
2018-06-24T12:21:49.677Z,26.70
2018-06-24T12:24:22.189Z,26.70
2018-06-24T12:26:54.895Z,26.70
2018-06-24T12:29:27.366Z,26.80
2018-06-24T12:31:59.252Z,26.80
2018-06-24T12:34:30.076Z,26.80
2018-06-24T12:37:00.993Z,26.80
2018-06-24T12:39:31.397Z,26.90
2018-06-24T12:42:01.524Z,26.80
2018-06-24T12:44:32.201Z,26.70
2018-06-24T12:47:02.722Z,26.70
2018-06-24T12:49:33.721Z,26.70
2018-06-24T12:52:05.430Z,26.80
2018-06-24T12:54:35.790Z,26.80
2018-06-24T12:57:07.470Z,26.90
2018-06-24T12:59:38.560Z,26.90
2018-06-24T13:02:09.319Z,26.90
2018-06-24T13:04:40.026Z,26.90
2018-06-24T13:07:10.446Z,26.90
2018-06-24T13:09:40.600Z,26.90
2018-06-24T13:12:10.925Z,27.00
2018-06-24T13:14:41.416Z,27.10
2018-06-24T13:17:12.640Z,27.20
2018-06-24T13:19:43.836Z,27.30
2018-06-24T13:22:14.065Z,27.40
2018-06-24T13:24:44.364Z,27.50
2018-06-24T13:27:14.742Z,27.50
2018-06-24T13:29:45.091Z,27.50
2018-06-24T13:32:15.360Z,27.50
2018-06-24T13:34:45.886Z,27.50
2018-06-24T13:37:16.820Z,27.60
2018-06-24T13:39:47.337Z,27.70
2018-06-24T13:42:18.037Z,27.80
2018-06-24T13:44:48.369Z,28.00
2018-06-24T13:47:18.617Z,28.10
2018-06-24T13:49:49.237Z,28.40
2018-06-24T13:52:19.945Z,29.00
2018-06-24T13:54:51.104Z,29.90
2018-06-24T13:57:21.265Z,31.10
2018-06-24T13:59:51.661Z,32.30
2018-06-24T14:02:21.790Z,33.70
2018-06-24T14:04:52.109Z,34.90
2018-06-24T14:07:22.393Z,35.80
2018-06-24T14:09:52.733Z,36.50
2018-06-24T14:12:23.016Z,37.30
2018-06-24T14:14:53.742Z,38.20
2018-06-24T14:17:24.522Z,39.10
2018-06-24T14:19:55.108Z,39.80
2018-06-24T14:22:25.355Z,40.40
2018-06-24T14:24:55.833Z,40.80
2018-06-24T14:27:26.255Z,41.00
2018-06-24T14:29:56.558Z,41.50
2018-06-24T14:32:27.020Z,42.00
2018-06-24T14:34:57.268Z,42.40
2018-06-24T14:37:27.748Z,42.60
2018-06-24T14:39:57.836Z,42.90
2018-06-24T14:42:28.713Z,43.10
2018-06-24T14:44:59.257Z,43.40
2018-06-24T14:47:30.504Z,43.60
2018-06-24T14:50:01.189Z,44.10
2018-06-24T14:52:31.997Z,44.50
2018-06-24T14:55:03.141Z,44.90
2018-06-24T14:57:33.889Z,45.70
2018-06-24T15:00:03.956Z,46.50
2018-06-24T15:02:36.057Z,47.20
2018-06-24T15:05:06.538Z,47.60
2018-06-24T15:07:37.021Z,47.30
2018-06-24T15:10:07.655Z,47.00
2018-06-24T15:12:37.978Z,47.20
2018-06-24T15:15:08.413Z,47.20
2018-06-24T15:17:38.645Z,47.00
2018-06-24T15:20:08.745Z,47.00
2018-06-24T15:22:39.496Z,46.90
2018-06-24T15:25:09.972Z,46.80
2018-06-24T15:27:40.312Z,46.60
2018-06-24T15:30:10.774Z,46.70
2018-06-24T15:32:40.978Z,47.00
2018-06-24T15:35:11.603Z,47.50
2018-06-24T15:37:41.995Z,47.90
2018-06-24T15:40:11.786Z,48.30
2018-06-24T15:42:42.278Z,48.60
2018-06-24T15:45:12.685Z,48.60
2018-06-24T15:47:44.277Z,48.80
2018-06-24T15:50:14.651Z,48.80
2018-06-24T15:52:45.347Z,48.70
2018-06-24T15:55:15.913Z,48.40
2018-06-24T15:57:46.500Z,48.00
2018-06-24T16:00:17.320Z,47.60
2018-06-24T16:02:48.426Z,47.60
2018-06-24T16:05:20.152Z,47.50
2018-06-24T16:07:52.848Z,47.20
2018-06-24T16:10:24.021Z,47.20
2018-06-24T16:13:00.775Z,47.50
2018-06-24T16:15:31.965Z,48.00
2018-06-24T16:18:04.613Z,48.60
2018-06-24T16:20:38.937Z,48.90
2018-06-24T16:23:09.565Z,49.10
2018-06-24T16:25:40.378Z,48.80
2018-06-24T16:28:11.490Z,48.30
2018-06-24T16:30:43.379Z,48.00
2018-06-24T16:33:16.909Z,47.60
2018-06-24T16:35:49.647Z,47.40
2018-06-24T16:38:21.728Z,47.00
2018-06-24T16:40:52.444Z,46.70
2018-06-24T16:43:24.088Z,46.50
2018-06-24T16:45:54.179Z,46.20
2018-06-24T16:48:24.981Z,46.40
2018-06-24T16:50:55.107Z,46.70
2018-06-24T16:53:25.684Z,47.00
2018-06-24T16:55:57.061Z,47.30
2018-06-24T16:58:27.745Z,47.50
2018-06-24T17:00:58.586Z,47.70
2018-06-24T17:03:29.451Z,47.80
2018-06-24T17:06:00.418Z,47.60
2018-06-24T17:08:31.872Z,47.30
2018-06-24T17:11:02.938Z,47.00
2018-06-24T17:13:33.795Z,46.90
2018-06-24T17:16:04.116Z,46.80
2018-06-24T17:18:35.139Z,46.40
2018-06-24T17:21:05.514Z,46.20
2018-06-24T17:23:35.942Z,46.10
2018-06-24T17:26:07.081Z,46.10
2018-06-24T17:28:37.665Z,46.20
2018-06-24T17:31:08.315Z,46.20
2018-06-24T17:33:39.720Z,46.30
2018-06-24T17:36:09.978Z,46.30
2018-06-24T17:38:40.633Z,46.40
2018-06-24T17:41:12.185Z,46.30
2018-06-24T17:43:43.880Z,46.30
2018-06-24T17:46:15.488Z,46.30
2018-06-24T17:48:45.949Z,46.30
2018-06-24T17:51:17.300Z,46.10
2018-06-24T17:53:49.035Z,46.00
2018-06-24T17:56:19.911Z,45.50
2018-06-24T17:58:51.702Z,45.00
2018-06-24T18:01:23.481Z,44.40
2018-06-24T18:03:59.680Z,44.00
2018-06-24T18:06:30.138Z,43.60
2018-06-24T18:09:00.785Z,43.50
2018-06-24T18:11:31.646Z,43.50
2018-06-24T18:14:02.870Z,43.40
2018-06-24T18:16:33.644Z,43.40
2018-06-24T18:19:04.095Z,43.40
2018-06-24T18:21:34.038Z,43.20
2018-06-24T18:24:07.220Z,43.10
2018-06-24T18:26:37.510Z,43.10
2018-06-24T18:29:07.539Z,43.10
2018-06-24T18:31:39.774Z,43.00
2018-06-24T18:34:13.493Z,42.90
2018-06-24T18:36:44.238Z,42.70
2018-06-24T18:39:15.039Z,42.70
2018-06-24T18:41:45.309Z,42.70
2018-06-24T18:44:16.085Z,42.60
2018-06-24T18:46:46.276Z,42.50
2018-06-24T18:49:21.085Z,42.30
2018-06-24T18:51:53.414Z,42.20
2018-06-24T18:54:23.851Z,42.10
2018-06-24T18:56:56.155Z,42.00
2018-06-24T18:59:27.093Z,41.80
2018-06-24T19:01:58.037Z,41.60
2018-06-24T19:04:29.183Z,41.40
2018-06-24T19:07:00.158Z,41.00
2018-06-24T19:09:31.179Z,40.40
2018-06-24T19:12:02.541Z,39.70
2018-06-24T19:14:33.151Z,38.90
2018-06-24T19:17:03.471Z,38.30
2018-06-24T19:19:34.987Z,37.90
2018-06-24T19:22:05.629Z,37.60
2018-06-24T19:24:37.135Z,37.40
2018-06-24T19:27:07.708Z,37.00
2018-06-24T19:29:38.590Z,36.40
2018-06-24T19:32:08.921Z,36.10
2018-06-24T19:34:39.712Z,35.60
2018-06-24T19:37:10.524Z,35.00
2018-06-24T19:39:41.141Z,34.50
2018-06-24T19:42:11.551Z,34.00
2018-06-24T19:44:42.293Z,33.50
2018-06-24T19:47:26.301Z,33.00
2018-06-24T19:49:57.420Z,32.50
2018-06-24T19:53:12.789Z,32.10
2018-06-24T19:55:44.245Z,31.60
2018-06-24T19:58:15.048Z,31.20
2018-06-24T20:00:47.465Z,30.80
2018-06-24T20:03:17.684Z,30.50
2018-06-24T20:05:47.932Z,30.10
2018-06-24T20:08:18.352Z,29.80
2018-06-24T20:10:48.486Z,29.50
2018-06-24T20:13:19.655Z,29.20
2018-06-24T20:15:49.622Z,28.90
2018-06-24T20:18:20.746Z,28.70
2018-06-24T20:20:51.292Z,28.40
2018-06-24T20:23:22.198Z,28.10
2018-06-24T20:25:53.121Z,27.90
2018-06-24T20:28:23.291Z,27.60
2018-06-24T20:30:53.688Z,27.40
2018-06-24T20:33:24.253Z,27.20
2018-06-24T20:35:55.226Z,27.00
2018-06-24T20:38:25.486Z,26.80
2018-06-24T20:40:55.894Z,26.50
2018-06-24T20:43:26.245Z,26.30
2018-06-24T20:45:56.438Z,26.10
2018-06-24T20:48:26.851Z,26.00
2018-06-24T20:51:00.109Z,25.80
2018-06-24T20:53:33.602Z,25.60
2018-06-24T20:56:04.200Z,25.50
2018-06-24T20:58:34.764Z,25.30
2018-06-24T21:01:04.922Z,25.10
2018-06-24T21:03:36.649Z,25.00
2018-06-24T21:06:07.669Z,24.90
2018-06-24T21:08:37.868Z,24.70
2018-06-24T21:11:08.506Z,24.60
2018-06-24T21:13:38.566Z,24.50
2018-06-24T21:16:08.710Z,24.30
2018-06-24T21:18:38.799Z,24.20
2018-06-24T21:21:09.023Z,24.10
2018-06-24T21:23:39.585Z,24.00
2018-06-24T21:26:09.791Z,23.90
2018-06-24T21:28:40.660Z,23.80
2018-06-24T21:31:10.882Z,23.70
2018-06-24T21:33:41.306Z,23.60
2018-06-24T21:36:11.635Z,23.50
2018-06-24T21:38:41.872Z,23.40
2018-06-24T21:41:12.734Z,23.30
2018-06-24T21:43:43.315Z,23.20
2018-06-24T21:46:13.313Z,23.10
2018-06-24T21:48:44.470Z,23.00
2018-06-24T21:51:15.027Z,23.00
2018-06-24T21:53:45.308Z,22.90
2018-06-24T21:56:15.592Z,22.80
2018-06-24T21:58:46.326Z,22.70
2018-06-24T22:01:16.778Z,22.70
2018-06-24T22:03:46.845Z,22.60
2018-06-24T22:06:17.017Z,22.50
2018-06-24T22:08:47.217Z,22.40
2018-06-24T22:11:17.352Z,22.30
2018-06-24T22:13:47.661Z,22.30
2018-06-24T22:16:18.009Z,22.20
2018-06-24T22:18:48.172Z,22.10
2018-06-24T22:21:18.561Z,22.00
2018-06-24T22:23:48.949Z,22.00
2018-06-24T22:26:19.251Z,21.90
2018-06-24T22:28:49.650Z,21.90
2018-06-24T22:31:20.162Z,21.80
2018-06-24T22:33:50.353Z,21.70
2018-06-24T22:36:20.711Z,21.70
2018-06-24T22:38:50.759Z,21.60
2018-06-24T22:41:21.300Z,21.50
2018-06-24T22:43:51.998Z,21.50
2018-06-24T22:46:22.329Z,21.50
2018-06-24T22:48:52.685Z,21.40
2018-06-24T22:51:22.986Z,21.40
2018-06-24T22:53:53.008Z,21.30
2018-06-24T22:56:23.289Z,21.30
2018-06-24T22:59:09.649Z,21.20
2018-06-24T23:01:40.038Z,21.20
2018-06-24T23:04:10.310Z,21.20
2018-06-24T23:06:40.887Z,21.10
2018-06-24T23:09:11.271Z,21.10
2018-06-24T23:11:41.549Z,21.10
2018-06-24T23:14:11.791Z,21.00
2018-06-24T23:16:42.610Z,21.00
2018-06-24T23:19:12.874Z,21.00
2018-06-24T23:21:43.162Z,21.00
2018-06-24T23:24:16.558Z,20.90
2018-06-24T23:26:46.861Z,20.90
2018-06-24T23:29:17.134Z,20.90
2018-06-24T23:31:47.647Z,20.90
2018-06-24T23:34:17.939Z,20.80
2018-06-24T23:36:48.020Z,20.80
2018-06-24T23:39:18.486Z,20.80
2018-06-24T23:41:48.893Z,20.70
2018-06-24T23:44:19.034Z,20.70
2018-06-24T23:46:49.340Z,20.70
2018-06-24T23:49:19.430Z,20.70
2018-06-24T23:51:50.014Z,20.60
2018-06-24T23:54:20.329Z,20.60
2018-06-24T23:56:50.606Z,20.50
2018-06-24T23:59:21.905Z,20.50
